Time;durP1;ratioP1;P1;durP2;ratioP2;P2;SDS_P1;SDS_P2;PMS_P1;PMS_P2;Temp;Humidity;BMP_temperature;BMP_pressure;BME280_temperature;BME280_humidity;BME280_pressure;Samples;Min_cycle;Max_cycle;Signal;HPM_P1;HPM_P2
2021/12/08 00:00:18;;;;;;;2.85;1.10;;;;;;;18.71;45.68;99060.41;5049224;28;20155;-62
2021/12/08 00:02:43;;;;;;;2.23;0.90;;;;;;;18.67;45.64;99059.91;5070413;28;20052;-62
2021/12/08 00:05:10;;;;;;;3.88;0.90;;;;;;;18.69;45.31;99060.56;5052718;28;20044;-62
2021/12/08 00:07:35;;;;;;;2.33;0.80;;;;;;;18.67;45.85;99054.63;5071207;28;20115;-62
2021/12/08 00:10:14;;;;;;;3.67;0.98;;;;;;;18.64;45.50;99054.16;5070466;28;20067;-64
2021/12/08 00:15:49;;;;;;;3.72;1.00;;;;;;;18.63;45.70;99073.75;4977968;28;20093;-62
2021/12/08 00:18:19;;;;;;;2.85;0.80;;;;;;;18.64;45.81;99086.03;4963863;28;20054;-62
2021/12/08 00:20:46;;;;;;;3.20;1.00;;;;;;;18.58;45.46;99087.56;5010323;28;20048;-62
2021/12/08 00:23:11;;;;;;;3.25;0.93;;;;;;;18.60;45.51;99076.78;5033060;28;20099;-62
2021/12/08 00:25:37;;;;;;;2.35;1.00;;;;;;;18.54;45.75;99069.53;5050927;28;20037;-62
2021/12/08 00:28:04;;;;;;;1.92;0.80;;;;;;;18.54;45.63;99067.72;5050471;28;20052;-63
2021/12/08 00:30:29;;;;;;;2.83;1.08;;;;;;;18.54;45.67;99069.53;5029513;28;20540;-62
2021/12/08 00:32:56;;;;;;;4.95;1.00;;;;;;;18.53;45.90;99052.78;5052856;28;20086;-62
2021/12/08 00:35:22;;;;;;;3.10;1.10;;;;;;;18.56;45.44;99059.56;5052556;28;20044;-62
2021/12/08 00:37:47;;;;;;;3.08;0.82;;;;;;;18.55;45.79;99048.13;5052999;28;20036;-62
2021/12/08 00:40:14;;;;;;;3.35;1.10;;;;;;;18.53;45.99;99039.50;5070185;28;20455;-62
2021/12/08 00:42:39;;;;;;;2.55;0.90;;;;;;;18.52;45.85;99034.38;5070681;28;20063;-62
2021/12/08 00:45:05;;;;;;;2.83;1.00;;;;;;;18.49;45.78;99032.94;5035732;28;20101;-62
2021/12/08 00:47:30;;;;;;;2.92;0.82;;;;;;;18.49;45.55;99032.94;5070262;28;20064;-62
2021/12/08 00:49:56;;;;;;;2.95;1.00;;;;;;;18.46;45.74;99039.44;5070180;28;20063;-62
2021/12/08 00:52:24;;;;;;;2.67;0.80;;;;;;;18.50;45.75;99047.84;5069830;28;20068;-62
2021/12/08 00:54:50;;;;;;;2.20;1.00;;;;;;;18.50;45.93;99034.56;5052969;28;20086;-62
2021/12/08 00:57:15;;;;;;;2.78;0.80;;;;;;;18.47;45.52;99033.09;5070091;28;20040;-62
2021/12/08 00:59:41;;;;;;;2.78;0.77;;;;;;;18.43;45.60;99038.97;5070208;28;20124;-62
2021/12/08 01:02:06;;;;;;;2.40;0.98;;;;;;;18.41;45.85;99039.13;5052085;28;20484;-62
2021/12/08 01:04:32;;;;;;;4.18;0.98;;;;;;;18.42;46.04;99042.63;5050014;28;20041;-62
2021/12/08 01:06:58;;;;;;;3.22;0.90;;;;;;;18.40;45.84;99039.34;5035085;28;20060;-62
2021/12/08 01:09:23;;;;;;;3.42;0.88;;;;;;;18.42;45.85;99046.09;5069342;28;20064;-62
2021/12/08 01:11:49;;;;;;;2.70;0.90;;;;;;;18.38;46.08;99041.34;5069815;28;20033;-62
2021/12/08 01:14:15;;;;;;;1.95;0.80;;;;;;;18.39;45.85;99045.63;5068783;28;20151;-62
2021/12/08 01:16:40;;;;;;;2.15;0.80;;;;;;;18.40;45.80;99057.91;5052095;28;20028;-62
2021/12/08 01:19:06;;;;;;;3.35;1.05;;;;;;;18.38;45.96;99051.94;5051357;28;20055;-63
2021/12/08 01:21:31;;;;;;;2.08;0.80;;;;;;;18.39;46.11;99057.06;5069973;28;20143;-62
2021/12/08 01:23:57;;;;;;;2.00;0.77;;;;;;;18.38;46.19;99059.91;5069691;28;20496;-62
2021/12/08 01:26:22;;;;;;;3.85;0.68;;;;;;;18.34;45.91;99070.06;5069221;28;20059;-62
2021/12/08 01:28:51;;;;;;;1.77;0.88;;;;;;;18.36;46.13;99076.00;5068651;28;20503;-62
2021/12/08 01:31:17;;;;;;;3.03;0.90;;;;;;;18.35;45.75;99078.88;5068588;28;20040;-62
2021/12/08 01:33:42;;;;;;;2.83;0.90;;;;;;;18.32;46.17;99079.22;5052041;28;20086;-62
2021/12/08 01:36:07;;;;;;;2.67;0.98;;;;;;;18.31;45.85;99096.16;5051268;28;20654;-63
2021/12/08 01:38:33;;;;;;;2.95;0.90;;;;;;;18.25;46.15;99090.56;5051600;28;20120;-62
2021/12/08 01:40:58;;;;;;;2.45;0.88;;;;;;;18.25;45.94;99101.16;5069162;28;20083;-62
2021/12/08 01:43:27;;;;;;;3.05;0.90;;;;;;;18.23;46.38;99103.16;5069014;28;20095;-62
2021/12/08 01:46:00;;;;;;;2.03;0.85;;;;;;;18.22;46.14;99103.38;5069565;28;20066;-62
2021/12/08 01:48:28;;;;;;;2.05;0.75;;;;;;;18.22;46.17;99104.19;5051527;28;20052;-62
2021/12/08 01:50:56;;;;;;;3.17;1.23;;;;;;;18.19;46.35;99111.69;5068750;28;20040;-62
2021/12/08 01:53:22;;;;;;;2.97;0.70;;;;;;;18.23;46.43;99112.97;5068752;28;20040;-62
2021/12/08 01:55:47;;;;;;;3.40;1.10;;;;;;;18.21;46.00;99109.69;5051375;28;20040;-62
2021/12/08 01:58:13;;;;;;;3.28;0.95;;;;;;;18.22;46.04;99109.50;5068410;28;20043;-62
2021/12/08 02:00:50;;;;;;;3.70;1.20;;;;;;;18.16;46.15;99120.81;5069100;28;20497;-62
2021/12/08 02:03:16;;;;;;;1.98;0.80;;;;;;;18.19;46.11;99112.50;5050516;28;20037;-62
2021/12/08 02:05:42;;;;;;;2.17;0.80;;;;;;;18.19;46.22;99112.50;5068999;28;20459;-62
2021/12/08 02:08:07;;;;;;;2.00;0.70;;;;;;;18.13;46.39;99107.91;5068455;28;20037;-63
2021/12/08 02:10:33;;;;;;;3.22;1.20;;;;;;;18.13;46.17;99105.25;5034585;28;20037;-62
2021/12/08 02:12:58;;;;;;;2.15;0.80;;;;;;;18.17;46.04;99117.16;5068598;28;20032;-62
2021/12/08 02:15:24;;;;;;;2.17;0.77;;;;;;;18.11;46.15;99109.91;5050357;28;20597;-62
2021/12/08 02:17:52;;;;;;;1.70;0.80;;;;;;;18.16;46.36;99118.16;5050715;28;20400;-62
2021/12/08 02:20:17;;;;;;;2.35;0.65;;;;;;;18.13;46.16;99123.00;5068257;28;20033;-62
2021/12/08 02:22:43;;;;;;;2.25;0.90;;;;;;;18.10;46.77;99120.72;5068483;28;20047;-62
2021/12/08 02:25:11;;;;;;;1.77;0.70;;;;;;;18.14;46.16;99132.63;5067234;28;20094;-63
2021/12/08 02:27:36;;;;;;;2.45;0.82;;;;;;;18.15;46.33;99126.31;5050545;28;20059;-62
2021/12/08 02:30:14;;;;;;;2.15;0.80;;;;;;;18.10;46.33;99144.59;5068099;28;20123;-63
2021/12/08 02:48:52;;;;;;;1.92;0.68;;;;;;;18.04;45.98;99140.81;5068519;28;20105;-62
2021/12/08 02:51:20;;;;;;;1.20;0.63;;;;;;;17.98;46.75;99141.53;5067775;28;20036;-62
2021/12/08 02:53:47;;;;;;;2.80;0.73;;;;;;;17.98;46.43;99149.47;5068282;28;20037;-62
2021/12/08 02:56:13;;;;;;;2.80;0.60;;;;;;;18.00;46.44;99134.22;5067711;28;20036;-62
2021/12/08 02:58:38;;;;;;;2.10;0.80;;;;;;;18.00;46.45;99134.22;5068310;28;20041;-62
2021/12/08 03:01:04;;;;;;;2.38;0.70;;;;;;;17.97;46.43;99145.19;5067336;28;20032;-62
2021/12/08 03:03:29;;;;;;;2.10;0.70;;;;;;;17.94;46.11;99140.22;5067841;28;20119;-62
2021/12/08 03:05:54;;;;;;;1.50;0.50;;;;;;;17.93;46.40;99138.59;5068047;28;20063;-62
2021/12/08 03:08:20;;;;;;;2.50;0.52;;;;;;;17.93;46.34;99149.19;5067694;28;20047;-62
2021/12/08 03:10:46;;;;;;;2.28;0.60;;;;;;;17.94;46.38;99141.06;5050008;28;20119;-62
2021/12/08 03:13:12;;;;;;;2.45;0.50;;;;;;;17.96;46.33;99136.41;5033151;28;20067;-63
2021/12/08 03:15:37;;;;;;;2.28;0.50;;;;;;;17.95;46.37;99152.50;5050002;28;20033;-62
2021/12/08 03:18:03;;;;;;;1.45;0.50;;;;;;;17.94;46.40;99145.53;5042002;28;20571;-63
2021/12/08 03:20:39;;;;;;;1.38;0.55;;;;;;;17.92;46.39;99147.53;5030096;28;20472;-62
2021/12/08 03:23:06;;;;;;;2.30;0.50;;;;;;;17.94;46.05;99143.72;5047663;28;20116;-62
2021/12/08 03:25:37;;;;;;;1.83;0.52;;;;;;;17.93;46.37;99138.59;5030361;28;20194;-62
2021/12/08 03:28:09;;;;;;;1.58;0.52;;;;;;;17.92;46.45;99150.19;5047109;28;20051;-63
2021/12/08 03:30:41;;;;;;;1.85;0.40;;;;;;;17.90;46.24;99150.38;5031093;28;20041;-64
2021/12/08 03:33:08;;;;;;;1.75;0.40;;;;;;;17.91;46.44;99154.66;5047450;28;20497;-63
2021/12/08 03:35:34;;;;;;;2.15;0.50;;;;;;;17.88;46.38;99151.53;5047170;28;20033;-62
2021/12/08 03:37:59;;;;;;;1.83;0.50;;;;;;;17.87;46.34;99150.72;5051715;28;20551;-62
2021/12/08 03:40:25;;;;;;;0.93;0.40;;;;;;;17.86;46.10;99159.66;5051337;28;20037;-62
2021/12/08 03:42:52;;;;;;;3.10;0.80;;;;;;;17.87;46.36;99155.22;5034051;28;20049;-62
2021/12/08 03:45:28;;;;;;;2.03;0.40;;;;;;;17.82;46.24;99152.25;5033384;28;20047;-62
2021/12/08 03:48:00;;;;;;;1.40;0.45;;;;;;;17.83;46.28;99164.50;5049430;28;20036;-61
2021/12/08 03:50:26;;;;;;;1.65;0.40;;;;;;;17.82;46.33;99160.19;5038673;28;20048;-62
2021/12/08 03:52:51;;;;;;;1.50;0.50;;;;;;;17.81;46.47;99159.38;5071416;28;20036;-62
2021/12/08 03:55:17;;;;;;;1.95;0.40;;;;;;;17.78;46.36;99167.69;5070948;28;20454;-62
2021/12/08 03:57:42;;;;;;;2.17;0.73;;;;;;;17.78;46.39;99163.22;5071132;28;20064;-62
2021/12/08 04:00:10;;;;;;;1.55;0.50;;;;;;;17.76;46.63;99164.34;5052168;28;20036;-63
2021/12/08 04:02:36;;;;;;;1.83;0.60;;;;;;;17.77;46.57;99169.53;5071176;28;20079;-62
2021/12/08 04:05:04;;;;;;;1.40;0.75;;;;;;;17.71;46.40;99174.66;5070815;28;20040;-63
2021/12/08 04:07:31;;;;;;;1.55;0.52;;;;;;;17.69;46.39;99174.00;5071235;28;20028;-62
2021/12/08 04:09:56;;;;;;;1.77;0.50;;;;;;;17.69;46.46;99172.19;5053724;28;20554;-62
2021/12/08 04:12:22;;;;;;;1.88;0.70;;;;;;;17.67;46.69;99171.50;5070459;28;20060;-62
2021/12/08 04:14:57;;;;;;;1.02;0.50;;;;;;;17.67;46.68;99178.66;5070947;28;20657;-62
2021/12/08 04:17:36;;;;;;;1.10;0.30;;;;;;;17.65;46.49;99176.19;5052810;28;20071;-62
2021/12/08 04:20:06;;;;;;;2.17;0.68;;;;;;;17.69;46.21;99168.69;5070551;28;20047;-63
2021/12/08 04:22:34;;;;;;;1.10;0.40;;;;;;;17.70;46.54;99176.47;5053123;28;20127;-62
2021/12/08 04:25:00;;;;;;;0.70;0.38;;;;;;;17.70;46.12;99157.91;5052880;28;20664;-62
2021/12/08 04:27:28;;;;;;;1.73;0.40;;;;;;;17.70;46.55;99162.38;5070270;28;20457;-62
2021/12/08 04:29:54;;;;;;;1.25;0.40;;;;;;;17.66;46.30;99153.13;5070986;28;20127;-62
2021/12/08 04:32:20;;;;;;;1.48;0.47;;;;;;;17.64;46.46;99165.72;5070354;28;20461;-62
2021/12/08 04:34:49;;;;;;;3.45;0.60;;;;;;;17.62;46.17;99181.00;5052811;28;20125;-62
2021/12/08 04:37:27;;;;;;;1.55;0.63;;;;;;;17.58;46.43;99183.19;5052534;28;20132;-62
2021/12/08 04:40:08;;;;;;;1.65;0.40;;;;;;;17.61;46.47;99193.41;5070929;28;20041;-62
2021/12/08 04:45:19;;;;;;;2.17;0.50;;;;;;;17.57;46.67;99202.72;5069985;28;20048;-62
2021/12/08 04:48:06;;;;;;;2.13;0.50;;;;;;;17.60;46.55;99191.78;5052811;28;20450;-62
2021/12/08 04:51:00;;;;;;;2.30;0.52;;;;;;;17.52;46.42;99202.44;5070206;28;20035;-62
2021/12/08 04:53:37;;;;;;;2.10;0.60;;;;;;;17.52;45.89;99211.22;5069620;28;20048;-62
2021/12/08 05:01:56;;;;;;;3.40;0.60;;;;;;;17.47;46.10;99196.81;5049889;28;20390;-62
2021/12/08 05:04:49;;;;;;;2.28;0.57;;;;;;;17.47;46.52;99202.13;5049587;28;20127;-62
2021/12/08 05:09:56;;;;;;;1.70;0.50;;;;;;;17.48;46.48;99209.06;5050348;28;20472;-62
2021/12/08 05:12:23;;;;;;;2.47;0.57;;;;;;;17.45;46.52;99199.63;5032058;28;20662;-62
2021/12/08 05:14:57;;;;;;;2.85;0.60;;;;;;;17.45;46.42;99198.78;5049846;28;20045;-62
2021/12/08 05:17:29;;;;;;;1.50;0.60;;;;;;;17.46;46.29;99200.47;5051527;28;20055;-62
2021/12/08 05:19:56;;;;;;;1.25;0.60;;;;;;;17.43;46.49;99212.25;5069959;28;20037;-62
2021/12/08 05:22:43;;;;;;;1.90;0.35;;;;;;;17.44;46.16;99203.28;5068891;28;20064;-62
2021/12/08 05:25:11;;;;;;;1.90;0.55;;;;;;;17.43;46.37;99206.94;5051763;28;20036;-62
2021/12/08 05:27:43;;;;;;;1.92;0.50;;;;;;;17.45;46.36;99209.41;5069828;28;20032;-62
2021/12/08 05:30:47;;;;;;;2.67;0.55;;;;;;;17.45;46.09;99209.41;5051659;28;20109;-62
2021/12/08 05:33:13;;;;;;;5.60;0.60;;;;;;;17.41;45.99;99213.41;5007232;28;20096;-62
2021/12/08 05:35:39;;;;;;;2.40;0.50;;;;;;;17.50;46.55;99217.69;5007474;28;20042;-62
2021/12/08 05:38:04;;;;;;;2.75;0.60;;;;;;;17.56;46.27;99225.75;5035571;28;20131;-62
2021/12/08 05:40:39;;;;;;;16.88;0.90;;;;;;;17.44;46.04;99231.63;5069190;28;20151;-62
2021/12/08 05:43:05;;;;;;;4.55;0.88;;;;;;;17.57;47.21;99239.84;5045618;28;20048;-63
2021/12/08 05:45:31;;;;;;;3.58;0.60;;;;;;;17.68;46.98;99251.91;5057738;28;20183;-62
2021/12/08 05:47:56;;;;;;;3.63;0.60;;;;;;;17.76;46.58;99263.28;5057162;28;20467;-62
2021/12/08 05:50:32;;;;;;;3.47;0.80;;;;;;;17.80;46.29;99272.63;5023613;28;20051;-62
2021/12/08 05:52:57;;;;;;;3.85;0.70;;;;;;;17.88;46.30;99270.91;5044090;28;20040;-62
2021/12/08 05:55:23;;;;;;;4.55;0.55;;;;;;;17.93;46.37;99277.38;5042621;28;20095;-62
2021/12/08 05:57:48;;;;;;;3.50;0.80;;;;;;;17.97;46.06;99283.16;5065613;28;20120;-62
2021/12/08 06:00:23;;;;;;;3.33;0.88;;;;;;;18.03;46.00;99277.16;5041299;28;20679;-62
2021/12/08 06:02:48;;;;;;;2.92;0.70;;;;;;;18.04;45.88;99281.44;5044574;28;20037;-62
2021/12/08 06:05:14;;;;;;;3.97;0.77;;;;;;;18.09;46.00;99279.09;5058083;28;20063;-62
2021/12/08 06:07:39;;;;;;;3.85;0.88;;;;;;;18.16;46.17;99281.88;5067946;28;20043;-62
2021/12/08 06:10:09;;;;;;;3.55;0.70;;;;;;;18.20;46.04;99284.00;5052579;28;20033;-62
2021/12/08 06:12:34;;;;;;;3.90;0.80;;;;;;;18.30;46.00;99293.56;5052206;28;20033;-62
2021/12/08 06:15:00;;;;;;;5.15;0.68;;;;;;;18.40;45.88;99294.19;5035483;28;20072;-63
2021/12/08 06:17:27;;;;;;;3.63;0.60;;;;;;;18.47;46.49;99281.88;5033994;28;20480;-62
2021/12/08 06:19:53;;;;;;;2.22;0.40;;;;;;;18.59;45.92;99277.81;5061608;28;20523;-62
2021/12/08 06:22:18;;;;;;;4.03;0.60;;;;;;;18.68;45.99;99276.75;5053678;28;20041;-62
2021/12/08 06:24:44;;;;;;;3.88;0.47;;;;;;;18.76;45.99;99275.88;5048424;28;20041;-62
2021/12/08 06:27:09;;;;;;;1.40;0.50;;;;;;;18.85;45.83;99292.56;5030497;28;20047;-63
2021/12/08 06:29:35;;;;;;;2.38;0.60;;;;;;;18.90;45.48;99298.19;5040646;28;20074;-62
2021/12/08 06:32:01;;;;;;;2.15;0.50;;;;;;;18.96;45.76;99302.78;5067844;28;20497;-62
2021/12/08 06:34:26;;;;;;;1.98;0.47;;;;;;;18.98;45.34;99308.72;5037114;28;20124;-62
2021/12/08 06:37:00;;;;;;;3.42;0.70;;;;;;;18.99;45.38;99305.09;5030606;28;20037;-62
2021/12/08 06:39:29;;;;;;;3.67;0.63;;;;;;;19.04;45.77;99296.56;5048096;28;20036;-62
2021/12/08 06:41:57;;;;;;;2.55;0.52;;;;;;;19.06;45.84;99311.31;5030531;28;20041;-62
2021/12/08 06:44:32;;;;;;;2.95;0.65;;;;;;;19.08;46.24;99303.97;5048081;28;20034;-62
2021/12/08 06:46:58;;;;;;;3.15;0.70;;;;;;;19.10;45.64;99312.63;5031321;28;20029;-63
2021/12/08 06:49:23;;;;;;;3.47;0.70;;;;;;;19.10;45.45;99317.94;5042481;28;20040;-62
2021/12/08 06:52:10;;;;;;;3.78;0.70;;;;;;;19.11;46.10;99300.97;5036079;28;20060;-62
2021/12/08 06:54:38;;;;;;;3.10;0.65;;;;;;;19.16;46.12;99314.56;5054967;28;20090;-62
2021/12/08 06:57:13;;;;;;;3.17;0.73;;;;;;;19.18;45.90;99309.88;5043387;28;20095;-62
2021/12/08 06:59:52;;;;;;;2.67;0.60;;;;;;;19.20;45.84;99307.03;5048607;28;20079;-62
2021/12/08 07:02:35;;;;;;;2.63;0.65;;;;;;;19.23;45.72;99316.50;5032469;28;20561;-62
2021/12/08 07:05:12;;;;;;;2.58;0.77;;;;;;;19.25;45.56;99310.00;5018121;28;20068;-64
2021/12/08 07:07:38;;;;;;;1.55;0.50;;;;;;;19.27;45.90;99315.94;5054224;28;20138;-61
2021/12/08 07:10:12;;;;;;;2.38;0.68;;;;;;;19.27;45.84;99318.59;5052717;28;20035;-62
2021/12/08 07:12:42;;;;;;;3.15;0.70;;;;;;;19.31;46.22;99319.09;5063837;28;20473;-61
2021/12/08 07:15:50;;;;;;;2.00;0.50;;;;;;;19.26;45.38;99321.44;5063407;28;20070;-62
2021/12/08 07:18:25;;;;;;;3.33;1.00;;;;;;;19.30;45.57;99315.56;5049476;28;20052;-62
2021/12/08 07:20:54;;;;;;;2.65;0.50;;;;;;;19.29;45.63;99315.78;5067275;28;20074;-61
2021/12/08 07:23:35;;;;;;;2.50;0.60;;;;;;;19.28;46.00;99311.47;5047233;28;20045;-62
2021/12/08 07:26:01;;;;;;;3.08;0.68;;;;;;;19.30;45.51;99320.88;5031307;28;20064;-62
2021/12/08 07:28:27;;;;;;;3.08;0.90;;;;;;;19.29;46.28;99327.22;5047674;28;20103;-61
2021/12/08 07:30:55;;;;;;;3.15;0.60;;;;;;;19.27;45.59;99320.44;5029827;28;20501;-62
2021/12/08 07:33:21;;;;;;;2.10;0.50;;;;;;;19.30;45.53;99322.72;5051073;28;20045;-62
2021/12/08 07:35:49;;;;;;;3.63;0.85;;;;;;;19.31;46.19;99324.41;5045499;28;20040;-61
2021/12/08 07:38:16;;;;;;;2.92;0.70;;;;;;;19.31;45.58;99329.72;5057733;28;20135;-62
2021/12/08 07:40:49;;;;;;;2.40;0.60;;;;;;;19.29;45.92;99335.19;5049960;28;20152;-62
2021/12/08 07:43:16;;;;;;;3.20;0.85;;;;;;;19.27;45.94;99331.88;5053041;28;20048;-62
2021/12/08 07:45:43;;;;;;;2.03;0.60;;;;;;;19.27;46.06;99333.72;5057078;28;20037;-61
2021/12/08 07:48:12;;;;;;;5.45;0.70;;;;;;;19.29;45.89;99337.03;5058339;28;20871;-63
2021/12/08 07:50:44;;;;;;;3.85;0.70;;;;;;;19.29;45.45;99337.03;5046865;28;20485;-62
2021/12/08 07:53:10;;;;;;;3.42;0.80;;;;;;;19.33;45.01;99338.31;5032120;28;20537;-63
2021/12/08 07:55:39;;;;;;;3.75;1.00;;;;;;;19.32;45.90;99342.00;5051960;28;20045;-62
2021/12/08 07:58:05;;;;;;;3.03;0.80;;;;;;;19.37;45.88;99334.31;5058282;28;20132;-62
2021/12/08 08:00:32;;;;;;;3.95;0.90;;;;;;;19.40;45.43;99344.59;5046709;28;20124;-62
2021/12/08 08:02:57;;;;;;;3.03;0.70;;;;;;;19.43;46.15;99346.88;5057355;28;20064;-62
2021/12/08 08:05:27;;;;;;;3.78;0.80;;;;;;;19.38;45.92;99341.28;5035908;28;20029;-62
2021/12/08 08:07:53;;;;;;;3.33;0.73;;;;;;;19.34;45.80;99340.81;5047352;28;20075;-63
2021/12/08 08:10:19;;;;;;;3.45;0.73;;;;;;;19.32;45.83;99336.69;5009290;28;20041;-62
2021/12/08 08:12:46;;;;;;;4.35;0.90;;;;;;;19.35;45.75;99337.13;5013299;28;20048;-62
2021/12/08 08:15:20;;;;;;;3.13;0.65;;;;;;;19.35;45.99;99336.31;5035270;28;20096;-62
2021/12/08 08:17:47;;;;;;;2.85;0.70;;;;;;;19.34;45.42;99334.69;5021723;28;20067;-62
2021/12/08 08:20:23;;;;;;;3.45;0.80;;;;;;;19.32;45.05;99328.69;5046703;28;20049;-62
2021/12/08 08:22:49;;;;;;;6.07;1.00;;;;;;;19.30;45.23;99334.19;5049131;28;20033;-62
2021/12/08 08:25:16;;;;;;;4.38;1.10;;;;;;;19.29;45.35;99342.34;5038628;28;20767;-63
2021/12/08 08:27:41;;;;;;;4.55;0.77;;;;;;;19.29;45.58;99337.84;5030751;28;20063;-61
2021/12/08 08:30:14;;;;;;;2.90;0.70;;;;;;;19.27;46.19;99347.00;5012785;28;20045;-60
2021/12/08 08:32:40;;;;;;;3.45;1.10;;;;;;;19.16;44.09;99343.78;5013385;28;20045;-62
2021/12/08 08:35:19;;;;;;;6.53;0.90;;;;;;;18.75;44.05;99350.44;5032617;28;20045;-63
2021/12/08 08:37:47;;;;;;;5.13;1.15;;;;;;;18.59;44.19;99367.28;5033762;28;20752;-62
2021/12/08 08:40:40;;;;;;;5.57;1.02;;;;;;;18.57;44.82;99370.09;5034412;28;20266;-62
2021/12/08 08:43:06;;;;;;;4.63;1.23;;;;;;;18.68;44.66;99353.75;5027008;28;20136;-62
2021/12/08 08:45:44;;;;;;;4.03;0.95;;;;;;;18.94;45.29;99363.25;5012960;28;20095;-61
2021/12/08 08:48:14;;;;;;;6.22;0.95;;;;;;;19.10;45.40;99357.78;5046712;28;20142;-62
2021/12/08 08:51:17;;;;;;;3.13;0.90;;;;;;;19.11;44.43;99364.75;5050419;28;20052;-61
2021/12/08 08:53:45;;;;;;;3.88;1.00;;;;;;;19.15;44.16;99352.78;5031665;28;20496;-62
2021/12/08 08:56:19;;;;;;;4.10;1.00;;;;;;;19.21;44.49;99361.03;5015507;28;20501;-62
2021/12/08 08:58:47;;;;;;;4.43;1.00;;;;;;;19.21;44.23;99355.72;5037154;28;20066;-62
2021/12/08 09:01:37;;;;;;;5.80;0.98;;;;;;;19.21;44.22;99361.88;5027806;28;20045;-62
2021/12/08 09:04:11;;;;;;;6.43;0.80;;;;;;;19.26;45.02;99364.81;5017711;28;20049;-61
2021/12/08 09:06:39;;;;;;;5.82;1.00;;;;;;;19.28;44.83;99372.63;5041255;28;20048;-61
2021/12/08 09:09:11;;;;;;;3.72;0.93;;;;;;;19.22;44.69;99373.34;5023967;28;20488;-62
2021/12/08 09:11:43;;;;;;;3.58;0.75;;;;;;;19.17;44.44;99369.34;5023607;28;20040;-61
2021/12/08 09:14:11;;;;;;;4.78;0.85;;;;;;;19.17;44.45;99376.50;5031453;28;20033;-61
2021/12/08 09:16:53;;;;;;;5.95;1.00;;;;;;;19.16;44.97;99372.22;5050077;28;20037;-61
2021/12/08 09:19:21;;;;;;;3.47;0.88;;;;;;;19.18;44.82;99380.84;5044296;28;20044;-61
2021/12/08 09:21:59;;;;;;;5.03;1.00;;;;;;;19.18;45.32;99384.31;5042916;28;20033;-61
2021/12/08 09:24:33;;;;;;;3.72;1.00;;;;;;;19.17;44.78;99385.31;5033621;28;20045;-61
2021/12/08 09:26:59;;;;;;;5.45;1.15;;;;;;;19.17;44.22;99382.66;5013044;28;20585;-61
2021/12/08 09:29:29;;;;;;;4.75;1.05;;;;;;;19.17;44.63;99392.47;5039678;28;20128;-61
2021/12/08 09:32:04;;;;;;;3.95;0.95;;;;;;;19.15;44.57;99390.00;5042498;28;20160;-61
2021/12/08 09:34:36;;;;;;;3.67;0.82;;;;;;;19.16;45.04;99386.31;5034596;28;20044;-61
2021/12/08 09:37:11;;;;;;;5.18;0.80;;;;;;;19.17;45.08;99382.66;5049121;28;20136;-62
2021/12/08 09:39:50;;;;;;;4.30;0.90;;;;;;;19.18;44.57;99389.63;5031700;28;20037;-61
2021/12/08 09:42:19;;;;;;;4.38;0.90;;;;;;;19.17;45.39;99398.59;5036115;28;20048;-61
2021/12/08 09:44:50;;;;;;;3.90;0.90;;;;;;;19.11;44.40;99391.34;5036348;28;20053;-61
2021/12/08 09:47:16;;;;;;;4.50;0.82;;;;;;;19.17;44.44;99393.28;5032761;28;20034;-62
2021/12/08 09:49:42;;;;;;;5.95;1.00;;;;;;;19.14;44.67;99393.63;5011742;28;20140;-61
2021/12/08 09:52:08;;;;;;;4.75;1.10;;;;;;;19.15;44.57;99400.63;5044944;28;20082;-62
2021/12/08 09:54:37;;;;;;;4.80;1.10;;;;;;;19.14;44.89;99409.59;5049260;28;20037;-61
2021/12/08 09:57:06;;;;;;;7.25;1.25;;;;;;;19.17;44.16;99422.53;5048527;28;20079;-62
2021/12/08 09:59:33;;;;;;;3.40;0.80;;;;;;;19.15;44.69;99432.53;5049220;28;20071;-61
2021/12/08 10:02:02;;;;;;;2.90;0.80;;;;;;;19.15;44.23;99437.84;5036590;28;20816;-61
2021/12/08 10:04:27;;;;;;;3.53;0.90;;;;;;;19.15;44.15;99443.16;5057640;28;20044;-61
2021/12/08 10:06:54;;;;;;;4.03;0.95;;;;;;;19.15;44.61;99445.81;5067898;28;20040;-61
2021/12/08 10:09:19;;;;;;;3.90;0.88;;;;;;;19.11;44.71;99443.69;5014151;28;20048;-61
2021/12/08 10:11:45;;;;;;;4.20;0.90;;;;;;;19.12;44.65;99464.78;5031085;28;20044;-61
2021/12/08 10:14:10;;;;;;;2.78;0.85;;;;;;;19.13;44.68;99461.09;5068330;28;20032;-61
2021/12/08 10:16:36;;;;;;;4.53;1.00;;;;;;;19.14;44.37;99456.63;5068590;28;20702;-61
2021/12/08 10:19:02;;;;;;;4.00;0.90;;;;;;;19.15;44.21;99451.13;5063906;28;20552;-61
2021/12/08 10:21:35;;;;;;;3.90;0.90;;;;;;;19.17;44.76;99453.59;5068082;28;20131;-61
2021/12/08 10:24:00;;;;;;;3.47;1.08;;;;;;;19.18;44.29;99464.06;5037352;28;20128;-67
2021/12/08 10:26:33;;;;;;;4.22;0.98;;;;;;;19.18;44.16;99469.41;5060445;28;20317;-61
2021/12/08 10:28:59;;;;;;;3.17;1.10;;;;;;;19.16;44.09;99460.75;5048464;28;20036;-61
2021/12/08 10:31:33;;;;;;;5.35;1.25;;;;;;;19.19;44.41;99465.72;5053820;28;20807;-61
2021/12/08 10:34:30;;;;;;;3.45;1.00;;;;;;;19.20;44.72;99466.53;5050487;28;20040;-61
2021/12/08 10:36:59;;;;;;;3.40;0.85;;;;;;;19.21;44.79;99467.38;5067409;28;20044;-61
2021/12/08 10:39:37;;;;;;;5.78;1.33;;;;;;;19.18;44.58;99463.25;5067289;28;20119;-61
2021/12/08 10:42:18;;;;;;;3.65;0.98;;;;;;;19.23;44.01;99466.19;5067948;28;20500;-61
2021/12/08 10:44:55;;;;;;;3.83;1.10;;;;;;;19.22;43.92;99461.88;5059506;28;20044;-61
2021/12/08 10:47:22;;;;;;;3.55;1.00;;;;;;;19.21;44.16;99467.38;5047613;28;20562;-61
2021/12/08 10:55:04;;;;;;;3.90;1.20;;;;;;;19.19;44.37;99476.34;5018871;28;20052;-61
2021/12/08 10:57:32;;;;;;;5.15;1.13;;;;;;;19.24;44.04;99473.19;5030345;28;20078;-62
2021/12/08 11:00:10;;;;;;;4.53;1.02;;;;;;;19.21;44.59;99470.03;5030234;28;20041;-62
2021/12/08 11:02:40;;;;;;;4.10;1.05;;;;;;;19.24;44.60;99477.66;5029775;28;20064;-62
2021/12/08 11:05:28;;;;;;;3.00;0.90;;;;;;;19.24;44.82;99467.00;5050511;28;20136;-63
2021/12/08 11:08:13;;;;;;;3.90;1.10;;;;;;;19.23;45.21;99460.88;5049659;28;20040;-62
2021/12/08 11:11:06;;;;;;;2.88;0.80;;;;;;;19.26;44.48;99457.84;5066250;28;20469;-62
2021/12/08 11:13:39;;;;;;;3.65;0.90;;;;;;;19.25;44.22;99453.56;5049019;28;20047;-62
2021/12/08 11:16:09;;;;;;;3.92;0.90;;;;;;;19.25;44.61;99455.41;5067286;28;20127;-62
2021/12/08 11:18:38;;;;;;;3.63;0.98;;;;;;;19.28;44.16;99463.84;5031860;28;20047;-62
2021/12/08 11:21:16;;;;;;;3.75;1.15;;;;;;;19.28;44.24;99463.84;5049978;28;20442;-63
2021/12/08 11:23:44;;;;;;;4.55;1.10;;;;;;;19.29;44.32;99476.13;5067850;28;20039;-61
2021/12/08 11:26:11;;;;;;;4.75;1.00;;;;;;;19.33;44.60;99465.94;5049775;28;20076;-61
2021/12/08 11:28:37;;;;;;;3.97;1.13;;;;;;;19.36;44.15;99481.56;5048739;28;20045;-62
2021/12/08 11:31:05;;;;;;;4.80;1.20;;;;;;;19.36;43.63;99471.75;5052678;28;20154;-62
2021/12/08 11:33:31;;;;;;;5.60;1.10;;;;;;;19.12;44.34;99472.75;5050179;28;20156;-61
2021/12/08 11:36:27;;;;;;;4.50;1.20;;;;;;;19.17;45.02;99473.03;5046971;28;20053;-61
2021/12/08 11:38:52;;;;;;;4.50;1.00;;;;;;;19.25;45.28;99474.00;5022422;28;20080;-61
2021/12/08 11:41:41;;;;;;;2.78;1.13;;;;;;;19.34;45.48;99480.91;5046421;28;20041;-61
2021/12/08 11:44:11;;;;;;;2.55;0.90;;;;;;;19.38;44.92;99482.22;5051184;28;20685;-62
2021/12/08 11:46:39;;;;;;;3.03;1.00;;;;;;;19.43;44.99;99477.19;5050297;28;20045;-61
2021/12/08 11:49:06;;;;;;;4.47;1.20;;;;;;;19.48;45.91;99463.34;5028976;28;20510;-61
2021/12/08 11:51:35;;;;;;;3.95;1.00;;;;;;;19.47;44.99;99473.16;5047712;28;20040;-62
2021/12/08 11:54:01;;;;;;;3.95;0.93;;;;;;;19.47;45.42;99475.84;5047128;28;20583;-63
2021/12/08 11:56:30;;;;;;;3.90;0.80;;;;;;;19.48;44.99;99461.50;5021398;28;20040;-61
2021/12/08 11:58:56;;;;;;;3.90;1.27;;;;;;;19.47;44.90;99462.53;5059437;28;20040;-62
2021/12/08 12:01:21;;;;;;;3.13;0.95;;;;;;;19.45;45.47;99461.88;5059422;28;20385;-60
2021/12/08 12:03:47;;;;;;;3.90;1.10;;;;;;;19.38;45.14;99464.41;5053713;28;20412;-61
2021/12/08 12:06:12;;;;;;;3.90;1.00;;;;;;;19.40;45.51;99472.22;5042900;28;20049;-62
2021/12/08 12:08:38;;;;;;;4.20;1.08;;;;;;;19.36;45.80;99468.25;5024610;28;20057;-63
2021/12/08 12:11:03;;;;;;;8.65;1.38;;;;;;;19.27;45.44;99466.66;5032809;28;20045;-62
2021/12/08 12:13:28;;;;;;;4.97;1.17;;;;;;;19.33;45.90;99476.59;5056011;28;20715;-62
2021/12/08 12:15:54;;;;;;;3.15;1.10;;;;;;;19.33;45.69;99476.59;5053086;28;20068;-62
2021/12/08 12:18:21;;;;;;;4.65;1.15;;;;;;;19.33;44.91;99477.41;5070681;28;20587;-62
2021/12/08 12:20:51;;;;;;;3.90;1.20;;;;;;;19.35;44.88;99471.94;5071175;28;20043;-62